PTN56L LPCS-LPPT
Flight info
| Callsign | PTN56L |
|---|---|
| Flight time | 0h 17m |
| Altitude | 11000 |
| Route | CAS DCT PESEX |
| Aircraft | PC24/M-SBDGIRWY/LB2 |
Departure
| Time | 2026-05-07 20:22 |
|---|---|
| Airport | Cascais Airport (LPCS) |
Arrival
| Time | 2026-05-07 20:40 |
|---|---|
| Airport | Lisbon Humberto Delgado Airport (LPPT) |
| Time | Latitude | Longitude | Altitude | Speed | Heading |
|---|---|---|---|---|---|
| 2026-05-07 19:55 | 38.72619 | -9.35749 | 311 ft | 0 kts | 347° |
| 2026-05-07 20:11 | 38.72609 | -9.35750 | 310 ft | 2 kts | 29° |
| 2026-05-07 20:11 | 38.72599 | -9.35766 | 310 ft | 2 kts | 69° |
| 2026-05-07 20:11 | 38.72597 | -9.35776 | 309 ft | 0 kts | 74° |
| 2026-05-07 20:13 | 38.72598 | -9.35772 | 309 ft | 3 kts | 73° |
| 2026-05-07 20:13 | 38.72594 | -9.35716 | 310 ft | 0 kts | 86° |
| 2026-05-07 20:14 | 38.72594 | -9.35714 | 310 ft | 1 kts | 86° |
| 2026-05-07 20:14 | 38.72597 | -9.35685 | 310 ft | 6 kts | 95° |
| 2026-05-07 20:14 | 38.72545 | -9.35647 | 308 ft | 12 kts | 164° |
| 2026-05-07 20:15 | 38.72528 | -9.35613 | 307 ft | 2 kts | 72° |
| 2026-05-07 20:15 | 38.72528 | -9.35609 | 307 ft | 0 kts | 71° |
| 2026-05-07 20:15 | 38.72535 | -9.35580 | 307 ft | 8 kts | 76° |
| 2026-05-07 20:15 | 38.72570 | -9.35546 | 308 ft | 0 kts | 12° |
| 2026-05-07 20:16 | 38.72571 | -9.35536 | 308 ft | 3 kts | 116° |
| 2026-05-07 20:16 | 38.72519 | -9.35526 | 306 ft | 14 kts | 168° |
| 2026-05-07 20:16 | 38.72374 | -9.35474 | 301 ft | 28 kts | 164° |
| 2026-05-07 20:16 | 38.72158 | -9.35390 | 291 ft | 34 kts | 174° |
| 2026-05-07 20:17 | 38.71933 | -9.35313 | 282 ft | 33 kts | 162° |
| 2026-05-07 20:17 | 38.71801 | -9.35251 | 275 ft | 3 kts | 188° |
| 2026-05-07 20:17 | 38.71800 | -9.35260 | 274 ft | 1 kts | 290° |
| 2026-05-07 20:17 | 38.71812 | -9.35268 | 275 ft | 0 kts | 342° |
| 2026-05-07 20:21 | 38.71820 | -9.35271 | 275 ft | 16 kts | 345° |
| 2026-05-07 20:22 | 38.72288 | -9.35442 | 307 ft | 118 kts | 339° |
| 2026-05-07 20:22 | 38.73231 | -9.35845 | 924 ft | 159 kts | 329° |
| 2026-05-07 20:22 | 38.74107 | -9.36751 | 2336 ft | 165 kts | 307° |
| 2026-05-07 20:22 | 38.74361 | -9.38206 | 3699 ft | 185 kts | 265° |
| 2026-05-07 20:23 | 38.73783 | -9.39966 | 4135 ft | 249 kts | 240° |
| 2026-05-07 20:23 | 38.73130 | -9.42289 | 4077 ft | 289 kts | 257° |
| 2026-05-07 20:23 | 38.72244 | -9.44458 | 4005 ft | 271 kts | 226° |
| 2026-05-07 20:23 | 38.70745 | -9.45840 | 3999 ft | 260 kts | 219° |
| 2026-05-07 20:24 | 38.69702 | -9.47676 | 4013 ft | 255 kts | 244° |
| 2026-05-07 20:24 | 38.68545 | -9.49391 | 4304 ft | 264 kts | 220° |
| 2026-05-07 20:24 | 38.67128 | -9.50813 | 5787 ft | 261 kts | 224° |
| 2026-05-07 20:24 | 38.66049 | -9.52767 | 6022 ft | 273 kts | 243° |
| 2026-05-07 20:25 | 38.65294 | -9.54940 | 6018 ft | 263 kts | 248° |
| 2026-05-07 20:25 | 38.64607 | -9.57109 | 5956 ft | 263 kts | 248° |
| 2026-05-07 20:25 | 38.63882 | -9.59234 | 5938 ft | 260 kts | 238° |
| 2026-05-07 20:25 | 38.62478 | -9.60662 | 5942 ft | 263 kts | 202° |
| 2026-05-07 20:26 | 38.60685 | -9.61181 | 5951 ft | 266 kts | 191° |
| 2026-05-07 20:26 | 38.58845 | -9.61510 | 5959 ft | 267 kts | 189° |
| 2026-05-07 20:26 | 38.56990 | -9.61805 | 5958 ft | 268 kts | 189° |
| 2026-05-07 20:26 | 38.55130 | -9.62087 | 5954 ft | 268 kts | 188° |
| 2026-05-07 20:27 | 38.53277 | -9.62369 | 5957 ft | 268 kts | 188° |
| 2026-05-07 20:27 | 38.51422 | -9.62649 | 5955 ft | 268 kts | 189° |
| 2026-05-07 20:27 | 38.49596 | -9.62915 | 5953 ft | 267 kts | 187° |
| 2026-05-07 20:27 | 38.47776 | -9.62462 | 5938 ft | 274 kts | 154° |
| 2026-05-07 20:28 | 38.46302 | -9.60906 | 5953 ft | 277 kts | 136° |
| 2026-05-07 20:28 | 38.44975 | -9.59120 | 5960 ft | 278 kts | 134° |
| 2026-05-07 20:28 | 38.43667 | -9.57302 | 5960 ft | 277 kts | 134° |
| 2026-05-07 20:28 | 38.42389 | -9.55498 | 5958 ft | 268 kts | 134° |
| 2026-05-07 20:29 | 38.41180 | -9.53777 | 5941 ft | 252 kts | 134° |
| 2026-05-07 20:29 | 38.40033 | -9.52149 | 5942 ft | 242 kts | 134° |
| 2026-05-07 20:29 | 38.38918 | -9.50572 | 5938 ft | 235 kts | 134° |
| 2026-05-07 20:29 | 38.37851 | -9.49061 | 5941 ft | 225 kts | 134° |
| 2026-05-07 20:30 | 38.36861 | -9.47541 | 5931 ft | 222 kts | 121° |
| 2026-05-07 20:30 | 38.36607 | -9.45666 | 5616 ft | 223 kts | 82° |
| 2026-05-07 20:30 | 38.37389 | -9.43967 | 5105 ft | 227 kts | 37° |
| 2026-05-07 20:30 | 38.38735 | -9.43001 | 4677 ft | 222 kts | 32° |
| 2026-05-07 20:31 | 38.39933 | -9.41776 | 4258 ft | 220 kts | 39° |
| 2026-05-07 20:31 | 38.41091 | -9.40540 | 3956 ft | 212 kts | 36° |
| 2026-05-07 20:31 | 38.42251 | -9.39447 | 3952 ft | 206 kts | 33° |
| 2026-05-07 20:31 | 38.43435 | -9.38370 | 3954 ft | 213 kts | 33° |
| 2026-05-07 20:32 | 38.44645 | -9.37254 | 3960 ft | 216 kts | 32° |
| 2026-05-07 20:32 | 38.45864 | -9.36120 | 3959 ft | 218 kts | 33° |
| 2026-05-07 20:32 | 38.47092 | -9.34979 | 3959 ft | 220 kts | 33° |
| 2026-05-07 20:32 | 38.48323 | -9.33836 | 3958 ft | 218 kts | 34° |
| 2026-05-07 20:33 | 38.49548 | -9.32700 | 3969 ft | 217 kts | 33° |
| 2026-05-07 20:33 | 38.50758 | -9.31575 | 4010 ft | 215 kts | 33° |
| 2026-05-07 20:33 | 38.51974 | -9.30444 | 4011 ft | 217 kts | 33° |
| 2026-05-07 20:33 | 38.53198 | -9.29308 | 4015 ft | 218 kts | 34° |
| 2026-05-07 20:34 | 38.54423 | -9.28167 | 4017 ft | 217 kts | 34° |
| 2026-05-07 20:34 | 38.55642 | -9.27032 | 4017 ft | 216 kts | 33° |
| 2026-05-07 20:34 | 38.56852 | -9.25907 | 4014 ft | 216 kts | 33° |
| 2026-05-07 20:34 | 38.58064 | -9.24776 | 4013 ft | 215 kts | 34° |
| 2026-05-07 20:35 | 38.59279 | -9.23681 | 4009 ft | 213 kts | 28° |
| 2026-05-07 20:35 | 38.60650 | -9.22934 | 3794 ft | 218 kts | 18° |
| 2026-05-07 20:35 | 38.61969 | -9.22231 | 3494 ft | 194 kts | 20° |
| 2026-05-07 20:35 | 38.63170 | -9.21576 | 3257 ft | 182 kts | 19° |
| 2026-05-07 20:36 | 38.64319 | -9.20959 | 3005 ft | 180 kts | 19° |
| 2026-05-07 20:36 | 38.65481 | -9.20338 | 2766 ft | 182 kts | 20° |
| 2026-05-07 20:36 | 38.66651 | -9.19716 | 2522 ft | 181 kts | 19° |
| 2026-05-07 20:36 | 38.67813 | -9.19104 | 2270 ft | 181 kts | 19° |
| 2026-05-07 20:37 | 38.68981 | -9.18481 | 2013 ft | 180 kts | 19° |
| 2026-05-07 20:37 | 38.70137 | -9.17863 | 1765 ft | 180 kts | 20° |
| 2026-05-07 20:37 | 38.71287 | -9.17248 | 1523 ft | 177 kts | 19° |
| 2026-05-07 20:37 | 38.72377 | -9.16662 | 1282 ft | 163 kts | 19° |
| 2026-05-07 20:38 | 38.73323 | -9.16162 | 1081 ft | 132 kts | 20° |
| 2026-05-07 20:38 | 38.74113 | -9.15735 | 883 ft | 114 kts | 18° |
| 2026-05-07 20:38 | 38.74849 | -9.15354 | 668 ft | 113 kts | 20° |
| 2026-05-07 20:38 | 38.75567 | -9.14964 | 576 ft | 109 kts | 18° |
| 2026-05-07 20:39 | 38.76287 | -9.14583 | 468 ft | 120 kts | 19° |
| 2026-05-07 20:39 | 38.77020 | -9.14183 | 347 ft | 102 kts | 17° |
| 2026-05-07 20:39 | 38.77542 | -9.13910 | 362 ft | 64 kts | 23° |
| 2026-05-07 20:39 | 38.77908 | -9.13714 | 359 ft | 51 kts | 23° |
| 2026-05-07 20:40 | 38.78201 | -9.13548 | 365 ft | 42 kts | 30° |
| 2026-05-07 20:40 | 38.78378 | -9.13333 | 358 ft | 19 kts | 70° |
| 2026-05-07 20:40 | 38.78303 | -9.13274 | 354 ft | 17 kts | 202° |
| 2026-05-07 20:40 | 38.78196 | -9.13330 | 354 ft | 16 kts | 202° |
| 2026-05-07 20:41 | 38.78092 | -9.13385 | 356 ft | 16 kts | 203° |
| 2026-05-07 20:41 | 38.77990 | -9.13408 | 351 ft | 16 kts | 168° |
| 2026-05-07 20:41 | 38.77872 | -9.13376 | 344 ft | 13 kts | 169° |
| 2026-05-07 20:41 | 38.77772 | -9.13349 | 337 ft | 16 kts | 167° |
| 2026-05-07 20:42 | 38.77742 | -9.13253 | 331 ft | 10 kts | 78° |
| 2026-05-07 20:42 | 38.77768 | -9.13208 | 333 ft | 6 kts | 7° |
| 2026-05-07 20:42 | 38.77805 | -9.13217 | 334 ft | 5 kts | 347° |
| 2026-05-07 20:42 | 38.77838 | -9.13227 | 336 ft | 7 kts | 345° |
| 2026-05-07 20:43 | 38.77899 | -9.13253 | 336 ft | 8 kts | 304° |
| 2026-05-07 20:43 | 38.77895 | -9.13305 | 335 ft | 2 kts | 256° |
| 2026-05-07 20:43 | 38.77894 | -9.13308 | 335 ft | 0 kts | 256° |